Terminal Aerodrome Forecast
Issued by NWS

Home | Current Version | Previous Version | Text Only | Print | Product List | Glossary Off
Versions: 1 2 3 4 5 6 7 8 9 10 11 12 13 14 15 16 17

000
FTUS43 KOAX 270533
TAFCDR
TAF
KCDR 270533Z 2706/2806 26005KT P6SM FEW110 BKN250
     FM271500 35011KT P6SM BKN150
     FM272100 01012KT P6SM VCTS BKN050CB
     FM280300 01006KT P6SM SCT050=

USA.gov is the U.S. government's official web portal to all federal, state and local government web resources and services.